createdAt,value
2018-07-01T00:00:47.584Z,38.68
2018-07-01T00:01:47.643Z,38.49
2018-07-01T00:02:47.742Z,39.06
2018-07-01T00:03:47.782Z,38.97
2018-07-01T00:04:47.878Z,38.97
2018-07-01T00:05:47.906Z,39.16
2018-07-01T00:06:47.974Z,39.26
2018-07-01T00:07:48.046Z,38.97
2018-07-01T00:08:48.112Z,38.97
2018-07-01T00:09:48.171Z,38.97
2018-07-01T00:10:48.434Z,39.26
2018-07-01T00:11:48.303Z,39.16
2018-07-01T00:12:48.475Z,39.45
2018-07-01T00:13:48.507Z,39.36
2018-07-01T00:14:48.499Z,39.36
2018-07-01T00:15:48.567Z,39.26
2018-07-01T00:16:48.636Z,39.45
2018-07-01T00:17:48.707Z,39.36
2018-07-01T00:18:48.771Z,39.26
2018-07-01T00:19:48.963Z,39.36
2018-07-01T00:20:49.071Z,39.26
2018-07-01T00:21:48.963Z,39.54
2018-07-01T00:22:49.036Z,39.36
2018-07-01T00:23:49.320Z,39.36
2018-07-01T00:24:49.159Z,39.45
2018-07-01T00:25:49.299Z,40.12
2018-07-01T00:26:49.291Z,40.01
2018-07-01T00:27:49.515Z,40.11
2018-07-01T00:28:49.471Z,40.39
2018-07-01T00:29:49.487Z,40.01
2018-07-01T00:30:49.556Z,40.11
2018-07-01T00:31:49.671Z,39.53
2018-07-01T00:32:49.691Z,40.01
2018-07-01T00:33:49.832Z,39.91
2018-07-01T00:34:49.820Z,40.30
2018-07-01T00:35:49.884Z,40.49
2018-07-01T00:36:49.948Z,40.58
2018-07-01T00:37:50.025Z,40.78
2018-07-01T00:38:50.208Z,40.49
2018-07-01T00:39:50.160Z,40.49
2018-07-01T00:40:50.212Z,40.49
2018-07-01T00:41:50.281Z,40.58
2018-07-01T00:42:50.648Z,40.88
2018-07-01T00:43:50.415Z,40.78
2018-07-01T00:44:50.476Z,40.78
2018-07-01T00:45:50.540Z,40.58
2018-07-01T00:46:50.720Z,41.06
2018-07-01T00:47:50.681Z,40.88
2018-07-01T00:48:50.744Z,40.68
2018-07-01T00:49:50.804Z,40.68
2018-07-01T00:50:51.185Z,41.45
2018-07-01T00:51:50.937Z,41.64
2018-07-01T00:52:51.009Z,41.45
2018-07-01T00:53:51.073Z,41.26
2018-07-01T00:54:51.133Z,41.35
2018-07-01T00:55:51.197Z,41.26
2018-07-01T00:56:51.265Z,41.45
2018-07-01T00:57:51.569Z,41.45
2018-07-01T00:58:51.397Z,40.97
2018-07-01T00:59:51.461Z,40.88
2018-07-01T01:00:51.533Z,40.97
2018-07-01T01:01:51.593Z,41.26
2018-07-01T01:02:51.924Z,41.26
2018-07-01T01:03:51.865Z,41.26
2018-07-01T01:04:51.796Z,41.35
2018-07-01T01:05:51.857Z,41.93
2018-07-01T01:06:52.005Z,41.64
2018-07-01T01:07:51.998Z,41.45
2018-07-01T01:08:52.062Z,41.74
2018-07-01T01:09:52.117Z,41.43
2018-07-01T01:10:52.185Z,41.74
2018-07-01T01:11:52.330Z,42.12
2018-07-01T01:12:52.561Z,41.82
2018-07-01T01:13:52.854Z,41.91
2018-07-01T01:14:52.630Z,41.82
2018-07-01T01:15:52.513Z,41.91
2018-07-01T01:16:52.581Z,42.20
2018-07-01T01:17:52.650Z,42.30
2018-07-01T01:18:52.721Z,42.39
2018-07-01T01:19:52.773Z,42.39
2018-07-01T01:20:52.842Z,42.30
2018-07-01T01:21:52.905Z,42.30
2018-07-01T01:22:52.977Z,42.20
2018-07-01T01:23:53.042Z,42.30
2018-07-01T01:24:53.102Z,42.39
2018-07-01T01:25:53.362Z,42.58
2018-07-01T01:26:53.234Z,42.49
2018-07-01T01:27:53.468Z,42.87
2018-07-01T01:28:53.514Z,43.14
2018-07-01T01:29:53.434Z,43.26
2018-07-01T01:30:53.630Z,43.14
2018-07-01T01:31:53.562Z,43.43
2018-07-01T01:32:53.626Z,43.26
2018-07-01T01:33:53.716Z,43.07
2018-07-01T01:34:53.917Z,43.64
2018-07-01T01:35:53.947Z,43.33
2018-07-01T01:36:53.890Z,43.07
2018-07-01T01:37:53.955Z,43.54
2018-07-01T01:38:54.230Z,43.26
2018-07-01T01:39:54.097Z,43.35
2018-07-01T01:40:54.151Z,43.54
2018-07-01T01:41:54.219Z,43.52
2018-07-01T01:42:54.346Z,43.43
2018-07-01T01:43:54.355Z,43.43
2018-07-01T01:44:54.419Z,43.62
2018-07-01T01:45:54.527Z,43.43
2018-07-01T01:46:54.547Z,43.71
2018-07-01T01:47:54.647Z,43.52
2018-07-01T01:48:54.683Z,44.29
2018-07-01T01:49:54.799Z,44.87
2018-07-01T01:50:54.807Z,44.20
2018-07-01T01:51:54.907Z,44.10
2018-07-01T01:52:54.939Z,44.38
2018-07-01T01:53:55.041Z,44.20
2018-07-01T01:54:55.076Z,44.10
2018-07-01T01:55:55.135Z,44.48
2018-07-01T01:56:55.199Z,44.96
2018-07-01T01:57:55.268Z,44.20
2018-07-01T01:58:55.363Z,44.00
2018-07-01T01:59:55.430Z,44.48
2018-07-01T02:00:55.464Z,44.48
2018-07-01T02:01:55.529Z,44.77
2018-07-01T02:02:55.592Z,44.68
2018-07-01T02:03:55.696Z,44.58
2018-07-01T02:04:55.732Z,44.96
2018-07-01T02:05:55.787Z,44.68
2018-07-01T02:06:55.856Z,44.68
2018-07-01T02:07:55.920Z,44.58
2018-07-01T02:08:55.992Z,44.68
2018-07-01T02:09:56.056Z,45.06
2018-07-01T02:10:56.121Z,44.38
2018-07-01T02:11:56.184Z,44.87
2018-07-01T02:12:56.248Z,45.06
2018-07-01T02:13:56.636Z,44.68
2018-07-01T02:14:56.648Z,44.96
2018-07-01T02:15:56.448Z,44.87
2018-07-01T02:16:56.553Z,45.23
2018-07-01T02:17:56.579Z,45.25
2018-07-01T02:18:56.640Z,45.23
2018-07-01T02:19:56.746Z,45.04
2018-07-01T02:20:56.776Z,45.23
2018-07-01T02:21:56.832Z,45.61
2018-07-01T02:22:56.900Z,45.71
2018-07-01T02:23:57.015Z,45.71
2018-07-01T02:24:57.040Z,46.28
2018-07-01T02:25:57.120Z,46.58
2018-07-01T02:26:57.171Z,46.38
2018-07-01T02:27:57.228Z,46.38
2018-07-01T02:28:57.301Z,46.48
2018-07-01T02:29:57.364Z,46.38
2018-07-01T02:30:57.433Z,46.28
2018-07-01T02:31:57.553Z,46.48
2018-07-01T02:32:57.557Z,47.63
2018-07-01T02:33:57.621Z,47.72
2018-07-01T02:34:57.730Z,47.15
2018-07-01T02:35:57.777Z,47.89
2018-07-01T02:36:57.817Z,48.09
2018-07-01T02:37:57.881Z,47.80
2018-07-01T02:38:57.952Z,47.99
2018-07-01T02:39:58.061Z,48.09
2018-07-01T02:40:58.084Z,48.28
2018-07-01T02:41:58.146Z,48.28
2018-07-01T02:42:58.209Z,48.95
2018-07-01T02:43:58.278Z,48.95
2018-07-01T02:44:58.345Z,48.85
2018-07-01T02:45:58.413Z,48.95
2018-07-01T02:46:58.470Z,48.95
2018-07-01T02:47:58.533Z,48.93
2018-07-01T02:48:58.837Z,48.93
2018-07-01T02:49:58.880Z,49.02
2018-07-01T02:50:58.737Z,49.12
2018-07-01T02:51:58.803Z,49.21
2018-07-01T02:52:58.869Z,49.21
2018-07-01T02:53:58.930Z,49.79
2018-07-01T02:54:59.230Z,49.60
2018-07-01T02:55:59.066Z,49.79
2018-07-01T02:56:59.126Z,49.79
2018-07-01T02:57:59.190Z,50.08
2018-07-01T02:58:59.253Z,50.17
2018-07-01T02:59:59.918Z,50.65
2018-07-01T03:00:59.386Z,50.37
2018-07-01T03:01:59.454Z,50.17
2018-07-01T03:02:59.690Z,50.17
2018-07-01T03:03:59.582Z,50.56
2018-07-01T03:04:59.655Z,50.17
2018-07-01T03:05:59.718Z,49.98
2018-07-01T03:06:59.774Z,50.27
2018-07-01T03:07:59.842Z,50.56
2018-07-01T03:08:59.906Z,50.17
2018-07-01T03:09:59.978Z,50.08
2018-07-01T03:11:00.241Z,50.46
2018-07-01T03:12:00.103Z,50.46
2018-07-01T03:13:00.170Z,50.65
2018-07-01T03:14:00.235Z,52.00
2018-07-01T03:15:00.299Z,52.19
2018-07-01T03:16:00.667Z,52.26
2018-07-01T03:17:00.427Z,52.07
2018-07-01T03:18:00.696Z,53.99
2018-07-01T03:19:00.670Z,52.93
2018-07-01T03:20:00.627Z,51.87
2018-07-01T03:21:00.694Z,52.16
2018-07-01T03:22:00.767Z,52.26
2018-07-01T03:23:01.200Z,52.16
2018-07-01T03:24:00.883Z,52.55
2018-07-01T03:25:00.951Z,51.87
2018-07-01T03:26:01.023Z,51.40
2018-07-01T03:27:01.331Z,51.10
2018-07-01T03:28:01.271Z,51.40
2018-07-01T03:29:01.339Z,51.20
2018-07-01T03:30:01.275Z,52.16
2018-07-01T03:31:01.352Z,54.75
2018-07-01T03:32:01.643Z,52.83
2018-07-01T03:33:01.477Z,51.87
2018-07-01T03:34:01.536Z,51.97
2018-07-01T03:35:01.599Z,52.36
2018-07-01T03:36:01.672Z,53.03
2018-07-01T03:37:01.747Z,53.22
2018-07-01T03:38:01.964Z,53.50
2018-07-01T03:39:01.868Z,52.64
2018-07-01T03:40:01.928Z,53.22
2018-07-01T03:41:02.192Z,53.03
2018-07-01T03:42:02.064Z,53.12
2018-07-01T03:43:02.235Z,52.93
2018-07-01T03:44:02.482Z,54.08
2018-07-01T03:45:02.389Z,54.94
2018-07-01T03:46:02.372Z,54.75
2018-07-01T03:47:02.668Z,53.89
2018-07-01T03:48:02.452Z,54.56
2018-07-01T03:49:02.516Z,54.66
2018-07-01T03:50:02.631Z,54.94
2018-07-01T03:51:02.644Z,54.94
2018-07-01T03:52:02.712Z,54.85
2018-07-01T03:53:02.780Z,55.23
2018-07-01T03:54:02.832Z,55.42
2018-07-01T03:55:02.904Z,53.79
2018-07-01T03:56:02.968Z,53.89
2018-07-01T03:57:03.049Z,53.50
2018-07-01T03:58:03.104Z,53.50
2018-07-01T03:59:03.165Z,53.60
2018-07-01T04:00:03.585Z,53.03
2018-07-01T04:01:03.292Z,53.12
2018-07-01T04:02:03.364Z,52.64
2018-07-01T04:03:03.429Z,52.26
2018-07-01T04:04:03.490Z,51.78
2018-07-01T04:05:03.553Z,52.09
2018-07-01T04:06:03.621Z,52.48
2018-07-01T04:07:03.693Z,52.19
2018-07-01T04:08:04.213Z,52.09
2018-07-01T04:09:03.813Z,52.38
2018-07-01T04:10:03.877Z,52.38
2018-07-01T04:11:04.081Z,52.28
2018-07-01T04:12:04.013Z,52.48
2018-07-01T04:13:04.082Z,52.57
2018-07-01T04:14:04.136Z,52.57
2018-07-01T04:15:04.262Z,53.15
2018-07-01T04:16:04.269Z,52.28
2018-07-01T04:17:04.442Z,52.57
2018-07-01T04:18:04.410Z,52.57
2018-07-01T04:19:04.465Z,52.09
2018-07-01T04:20:04.543Z,51.90
2018-07-01T04:21:04.593Z,52.28
2018-07-01T04:22:04.665Z,52.38
2018-07-01T04:23:04.730Z,51.81
2018-07-01T04:24:04.790Z,52.57
2018-07-01T04:25:04.854Z,52.19
2018-07-01T04:26:04.917Z,52.09
2018-07-01T04:27:04.996Z,51.61
2018-07-01T04:28:05.054Z,52.28
2018-07-01T04:29:05.118Z,52.00
2018-07-01T04:30:05.178Z,52.00
2018-07-01T04:31:05.474Z,52.28
2018-07-01T04:32:05.462Z,51.90
2018-07-01T04:33:05.486Z,51.90
2018-07-01T04:34:05.490Z,51.51
2018-07-01T04:35:05.560Z,51.51
2018-07-01T04:36:05.590Z,51.81
2018-07-01T04:37:05.636Z,51.42
2018-07-01T04:38:05.751Z,51.35
2018-07-01T04:39:05.818Z,51.45
2018-07-01T04:40:05.830Z,51.45
2018-07-01T04:41:05.898Z,51.83
2018-07-01T04:42:05.958Z,51.45
2018-07-01T04:43:06.030Z,51.54
2018-07-01T04:44:06.094Z,51.35
2018-07-01T04:45:06.154Z,51.06
2018-07-01T04:46:06.394Z,50.96
2018-07-01T04:47:06.344Z,51.54
2018-07-01T04:48:06.355Z,51.35
2018-07-01T04:49:06.423Z,51.25
2018-07-01T04:50:06.479Z,50.68
2018-07-01T04:51:06.548Z,51.35
2018-07-01T04:52:06.611Z,51.35
2018-07-01T04:53:06.871Z,51.35
2018-07-01T04:54:06.747Z,51.45
2018-07-01T04:55:06.952Z,51.25
2018-07-01T04:56:06.875Z,51.06
2018-07-01T04:57:07.155Z,51.54
2018-07-01T04:58:07.203Z,51.57
2018-07-01T04:59:07.071Z,51.18
2018-07-01T05:00:07.127Z,50.80
2018-07-01T05:01:07.210Z,50.70
2018-07-01T05:02:07.317Z,50.49
2018-07-01T05:03:07.696Z,50.68
2018-07-01T05:04:07.423Z,50.42
2018-07-01T05:05:08.031Z,50.61
2018-07-01T05:06:07.524Z,51.18
2018-07-01T05:07:07.595Z,51.57
2018-07-01T05:08:07.664Z,51.09
2018-07-01T05:09:08.302Z,51.37
2018-07-01T05:10:07.788Z,51.18
2018-07-01T05:11:07.844Z,50.42
2018-07-01T05:12:08.303Z,50.13
2018-07-01T05:13:07.992Z,50.70
2018-07-01T05:14:08.060Z,50.13
2018-07-01T05:15:08.112Z,50.13
2018-07-01T05:16:08.396Z,50.23
2018-07-01T05:17:08.296Z,50.03
2018-07-01T05:18:08.332Z,49.67
2018-07-01T05:19:08.368Z,49.55
2018-07-01T05:20:08.726Z,49.96
2018-07-01T05:21:08.504Z,49.29
2018-07-01T05:22:08.568Z,49.29
2018-07-01T05:23:08.648Z,49.57
2018-07-01T05:24:08.992Z,50.15
2018-07-01T05:25:08.769Z,49.48
2018-07-01T05:26:08.968Z,49.77
2018-07-01T05:27:08.897Z,49.67
2018-07-01T05:28:08.961Z,49.57
2018-07-01T05:29:09.042Z,49.77
2018-07-01T05:30:09.080Z,49.57
2018-07-01T05:31:09.162Z,48.81
2018-07-01T05:32:09.221Z,49.00
2018-07-01T05:33:09.297Z,48.81
2018-07-01T05:34:09.356Z,48.90
2018-07-01T05:35:09.413Z,49.00
2018-07-01T05:36:10.021Z,48.23
2018-07-01T05:37:09.701Z,48.33
2018-07-01T05:38:09.621Z,48.43
2018-07-01T05:39:09.689Z,48.54
2018-07-01T05:40:09.745Z,48.16
2018-07-01T05:41:09.806Z,48.93
2018-07-01T05:42:09.865Z,48.83
2018-07-01T05:43:09.945Z,49.22
2018-07-01T05:44:10.005Z,48.25
2018-07-01T05:45:10.825Z,48.25
2018-07-01T05:46:10.134Z,48.16
2018-07-01T05:47:10.209Z,47.87
2018-07-01T05:48:10.261Z,47.68
2018-07-01T05:49:11.362Z,47.77
2018-07-01T05:50:10.397Z,47.77
2018-07-01T05:51:10.462Z,47.87
2018-07-01T05:52:10.905Z,47.68
2018-07-01T05:53:10.585Z,47.77
2018-07-01T05:54:10.650Z,47.87
2018-07-01T05:55:10.938Z,48.18
2018-07-01T05:56:10.790Z,48.07
2018-07-01T05:57:10.906Z,47.89
2018-07-01T05:58:10.910Z,47.31
2018-07-01T05:59:10.985Z,47.61
2018-07-01T06:00:11.058Z,47.70
2018-07-01T06:01:11.131Z,47.22
2018-07-01T06:02:11.178Z,46.93
2018-07-01T06:03:11.238Z,46.84
2018-07-01T06:04:11.312Z,47.03
2018-07-01T06:05:11.522Z,47.13
2018-07-01T06:06:12.846Z,46.36
2018-07-01T06:07:11.518Z,46.74
2018-07-01T06:08:11.830Z,46.77
2018-07-01T06:09:11.766Z,47.15
2018-07-01T06:10:11.711Z,46.09
2018-07-01T06:11:11.843Z,45.80
2018-07-01T06:12:11.840Z,46.67
2018-07-01T06:13:11.915Z,46.47
2018-07-01T06:14:12.247Z,45.70
2018-07-01T06:15:12.035Z,45.53
2018-07-01T06:16:12.138Z,45.05
2018-07-01T06:17:12.504Z,43.75
2018-07-01T06:18:12.227Z,42.08
2018-07-01T06:19:12.298Z,39.43
2018-07-01T06:20:12.491Z,38.21
2018-07-01T06:21:12.447Z,36.51
2018-07-01T06:22:12.499Z,35.46
2018-07-01T06:23:12.575Z,34.62
2018-07-01T06:24:12.639Z,33.47
2018-07-01T06:25:12.715Z,32.45
2018-07-01T06:26:12.787Z,31.30
2018-07-01T06:27:12.943Z,31.03
2018-07-01T06:28:12.923Z,30.85
2018-07-01T06:29:12.995Z,29.02
2018-07-01T06:30:13.599Z,28.79
2018-07-01T06:31:13.663Z,29.78
2018-07-01T06:32:13.247Z,28.82
2018-07-01T06:33:13.695Z,29.04
2018-07-01T06:34:13.410Z,27.78
2018-07-01T06:35:13.472Z,27.80
2018-07-01T06:36:14.775Z,26.54
2018-07-01T06:37:13.607Z,26.53
2018-07-01T06:38:13.735Z,26.32
2018-07-01T06:39:13.755Z,26.14
2018-07-01T06:40:13.845Z,26.02
2018-07-01T06:41:13.939Z,27.09
2018-07-01T06:42:13.992Z,27.18
2018-07-01T06:43:14.460Z,27.48
2018-07-01T06:44:14.684Z,26.41
2018-07-01T06:45:14.372Z,26.63
2018-07-01T06:46:14.320Z,25.84
2018-07-01T06:47:14.428Z,26.42
2018-07-01T06:48:14.460Z,26.03
2018-07-01T06:49:14.548Z,28.09
2018-07-01T06:50:14.628Z,26.21
2018-07-01T06:51:14.708Z,26.42
2018-07-01T06:52:14.784Z,25.95
2018-07-01T06:53:14.852Z,25.64
2018-07-01T06:54:15.021Z,25.93
2018-07-01T06:55:15.029Z,25.85
2018-07-01T06:56:15.112Z,25.86
2018-07-01T06:57:15.309Z,25.16
2018-07-01T06:58:15.257Z,25.64
2018-07-01T06:59:15.336Z,25.75
2018-07-01T07:00:15.444Z,25.86
2018-07-01T07:01:15.505Z,24.69
2018-07-01T07:02:15.576Z,24.60
2018-07-01T07:03:16.209Z,24.89
2018-07-01T07:04:15.736Z,24.78
2018-07-01T07:05:15.820Z,25.73
2018-07-01T07:06:15.901Z,25.84
2018-07-01T07:07:15.981Z,25.65
2018-07-01T07:08:16.057Z,25.59
2018-07-01T07:09:16.141Z,24.50
2018-07-01T07:10:16.501Z,24.32
2018-07-01T07:11:16.301Z,24.52
2018-07-01T07:12:16.405Z,24.25
2018-07-01T07:13:16.457Z,23.76
2018-07-01T07:14:16.733Z,23.66
2018-07-01T07:15:17.313Z,23.58
2018-07-01T07:16:16.786Z,23.47
2018-07-01T07:17:16.781Z,23.46
2018-07-01T07:18:16.857Z,23.44
2018-07-01T07:19:16.937Z,23.44
2018-07-01T07:20:17.025Z,23.75
2018-07-01T07:21:17.105Z,23.86
2018-07-01T07:22:17.189Z,23.58
2018-07-01T07:23:17.257Z,22.91
2018-07-01T07:24:17.649Z,22.80
2018-07-01T07:25:17.446Z,22.70
2018-07-01T07:26:17.530Z,22.78
2018-07-01T07:27:17.706Z,22.78
2018-07-01T07:28:17.809Z,23.38
2018-07-01T07:29:17.741Z,23.57
2018-07-01T07:30:17.837Z,23.07
2018-07-01T07:31:17.934Z,23.68
2018-07-01T07:32:17.994Z,24.18
2018-07-01T07:33:18.342Z,22.61
2018-07-01T07:34:18.569Z,22.13
2018-07-01T07:35:18.329Z,23.03
2018-07-01T07:36:18.409Z,21.95
2018-07-01T07:37:18.382Z,22.02
2018-07-01T07:38:18.474Z,22.71
2018-07-01T07:39:18.550Z,22.41
2018-07-01T07:40:18.646Z,22.03
2018-07-01T07:41:18.718Z,22.02
2018-07-01T07:42:18.796Z,22.02
2018-07-01T07:43:18.874Z,22.72
2018-07-01T07:44:18.957Z,22.10
2018-07-01T07:45:19.109Z,22.69
2018-07-01T07:46:19.355Z,22.88
2018-07-01T07:47:19.338Z,22.67
2018-07-01T07:48:19.695Z,22.76
2018-07-01T07:49:19.367Z,22.66
2018-07-01T07:50:19.866Z,24.14
2018-07-01T07:51:28.870Z,22.75
2018-07-01T07:52:19.658Z,22.96
2018-07-01T07:53:19.674Z,22.76
2018-07-01T07:54:19.754Z,22.69
2018-07-01T07:55:19.845Z,22.85
2018-07-01T07:56:19.923Z,23.44
2018-07-01T07:57:19.994Z,23.46
2018-07-01T07:58:20.075Z,23.47
2018-07-01T07:59:20.154Z,22.66
2018-07-01T08:00:20.317Z,22.84
2018-07-01T08:01:20.315Z,22.75
2018-07-01T08:02:20.396Z,23.54
2018-07-01T08:03:20.476Z,23.46
2018-07-01T08:04:20.551Z,22.88
2018-07-01T08:05:20.639Z,23.02
2018-07-01T08:06:20.724Z,21.25
2018-07-01T08:07:20.855Z,21.85
2018-07-01T08:08:20.871Z,21.36
2018-07-01T08:09:20.951Z,21.26
2018-07-01T08:10:21.035Z,21.45
2018-07-01T08:11:21.116Z,21.27
2018-07-01T08:12:21.187Z,20.78
2018-07-01T08:13:21.267Z,21.17
2018-07-01T08:14:21.351Z,21.49
2018-07-01T08:15:21.435Z,20.90
2018-07-01T08:16:21.524Z,20.59
2018-07-01T08:17:21.588Z,20.30
2018-07-01T08:18:21.684Z,20.61
2018-07-01T08:19:21.748Z,20.40
2018-07-01T08:20:21.831Z,20.09
2018-07-01T08:21:21.919Z,20.39
2018-07-01T08:22:21.984Z,20.01
2018-07-01T08:23:22.067Z,20.20
2018-07-01T08:24:22.144Z,20.00
2018-07-01T08:25:22.416Z,20.68
2018-07-01T08:26:22.304Z,20.59
2018-07-01T08:27:22.384Z,20.09
2018-07-01T08:28:22.465Z,20.49
2018-07-01T08:29:22.552Z,20.56
2018-07-01T08:30:22.633Z,20.56
2018-07-01T08:31:22.708Z,21.06
2018-07-01T08:32:22.784Z,20.27
2018-07-01T08:33:22.860Z,20.64
2018-07-01T08:34:22.945Z,21.12
2018-07-01T08:35:23.025Z,20.83
2018-07-01T08:36:23.105Z,21.62
2018-07-01T08:37:23.177Z,21.33
2018-07-01T08:38:23.260Z,21.92
2018-07-01T08:39:23.337Z,20.73
2018-07-01T08:40:23.572Z,22.08
2018-07-01T08:41:23.497Z,22.96
2018-07-01T08:42:23.573Z,22.98
2018-07-01T08:43:23.652Z,22.02
2018-07-01T08:44:23.728Z,21.24
2018-07-01T08:45:23.816Z,20.46
2018-07-01T08:46:23.976Z,21.42
2018-07-01T08:47:23.965Z,21.33
2018-07-01T08:48:24.045Z,22.12
2018-07-01T08:49:24.125Z,21.42
2018-07-01T08:50:24.421Z,20.93
2018-07-01T08:51:24.281Z,21.33
2018-07-01T08:52:24.418Z,21.33
2018-07-01T08:53:24.440Z,20.95
2018-07-01T08:54:24.509Z,20.86
2018-07-01T08:55:24.601Z,20.37
2018-07-01T08:56:24.677Z,20.07
2018-07-01T08:57:24.749Z,20.37
2018-07-01T08:58:24.825Z,19.86
2018-07-01T08:59:24.909Z,19.85
2018-07-01T09:00:24.989Z,19.96
2018-07-01T09:01:25.066Z,19.96
2018-07-01T09:02:25.142Z,19.87
2018-07-01T09:03:25.217Z,19.30
2018-07-01T09:04:25.293Z,18.80
2018-07-01T09:05:25.402Z,19.28
2018-07-01T09:06:25.450Z,20.06
2018-07-01T09:07:25.526Z,19.67
2018-07-01T09:08:25.609Z,19.48
2018-07-01T09:09:25.682Z,19.38
2018-07-01T09:10:25.766Z,19.48
2018-07-01T09:11:25.850Z,19.39
2018-07-01T09:12:25.916Z,19.47
2018-07-01T09:13:25.993Z,19.27
2018-07-01T09:14:26.070Z,19.46
2018-07-01T09:15:26.162Z,19.37
2018-07-01T09:16:26.226Z,19.67
2018-07-01T09:17:26.298Z,19.48
2018-07-01T09:18:26.378Z,19.10
2018-07-01T09:19:26.455Z,19.48
2018-07-01T09:20:26.538Z,19.75
2018-07-01T09:21:26.622Z,19.85
2018-07-01T09:22:26.686Z,20.25
2018-07-01T09:23:26.809Z,19.18
2018-07-01T09:24:26.839Z,19.46
2018-07-01T09:25:26.962Z,19.35
2018-07-01T09:26:27.003Z,19.95
2018-07-01T09:27:27.073Z,20.06
2018-07-01T09:28:27.147Z,19.96
2018-07-01T09:29:27.223Z,19.28
2018-07-01T09:30:27.310Z,19.47
2018-07-01T09:31:27.375Z,20.15
2018-07-01T09:32:27.451Z,19.96
2018-07-01T09:33:27.527Z,19.95
2018-07-01T09:34:27.689Z,20.15
2018-07-01T09:35:27.688Z,19.37
2018-07-01T09:36:27.764Z,19.47
2018-07-01T09:37:27.831Z,19.18
2018-07-01T09:38:27.907Z,20.25
2018-07-01T09:39:27.987Z,19.46
2018-07-01T09:40:28.067Z,20.24
2018-07-01T09:41:28.144Z,19.86
2018-07-01T09:42:28.212Z,19.48
2018-07-01T09:43:28.325Z,19.49
2018-07-01T09:44:28.364Z,19.68
2018-07-01T09:45:28.440Z,19.18
2018-07-01T09:46:28.520Z,19.47
2018-07-01T09:47:28.589Z,20.04
2018-07-01T09:48:28.668Z,19.85
2018-07-01T09:49:28.740Z,19.85
2018-07-01T09:50:29.012Z,20.06
2018-07-01T09:51:28.900Z,19.65
2018-07-01T09:52:28.961Z,19.95
2018-07-01T09:53:29.040Z,20.04
2018-07-01T09:54:29.116Z,19.95
2018-07-01T09:55:29.352Z,20.23
2018-07-01T09:56:29.273Z,21.61
2018-07-01T09:57:29.345Z,21.03
2018-07-01T09:58:29.417Z,20.82
2018-07-01T09:59:29.493Z,20.53
2018-07-01T10:00:29.573Z,20.33
2018-07-01T10:01:29.652Z,20.83
2018-07-01T10:02:29.720Z,20.25
2018-07-01T10:03:29.797Z,20.36
2018-07-01T10:04:29.865Z,20.07
2018-07-01T10:05:29.945Z,19.28
2018-07-01T10:06:30.021Z,18.99
2018-07-01T10:07:30.089Z,19.38
2018-07-01T10:08:30.161Z,20.17
2018-07-01T10:09:30.241Z,19.38
2018-07-01T10:10:30.313Z,19.28
2018-07-01T10:11:30.477Z,19.57
2018-07-01T10:12:30.461Z,20.06
2018-07-01T10:13:30.534Z,20.24
2018-07-01T10:14:30.609Z,20.53
2018-07-01T10:15:30.681Z,20.90
2018-07-01T10:16:30.765Z,20.51
2018-07-01T10:17:30.837Z,21.09
2018-07-01T10:18:30.905Z,21.88
2018-07-01T10:19:30.977Z,21.39
2018-07-01T10:20:31.054Z,21.37
2018-07-01T10:21:31.142Z,21.37
2018-07-01T10:22:31.201Z,22.06
2018-07-01T10:23:31.275Z,21.26
2018-07-01T10:24:31.346Z,21.56
2018-07-01T10:25:31.422Z,22.16
2018-07-01T10:26:31.514Z,22.16
2018-07-01T10:27:31.574Z,21.47
2018-07-01T10:28:31.637Z,22.36
2018-07-01T10:29:31.714Z,21.59
2018-07-01T10:30:31.798Z,21.39
2018-07-01T10:31:31.866Z,22.37
2018-07-01T10:32:32.089Z,21.39
2018-07-01T10:33:32.002Z,21.31
2018-07-01T10:34:32.082Z,21.51
2018-07-01T10:35:32.150Z,21.42
2018-07-01T10:36:32.378Z,20.34
2018-07-01T10:37:32.294Z,20.04
2018-07-01T10:38:32.366Z,20.04
2018-07-01T10:39:32.443Z,21.03
2018-07-01T10:40:32.515Z,21.60
2018-07-01T10:41:32.594Z,21.30
2018-07-01T10:42:32.672Z,21.21
2018-07-01T10:43:32.734Z,21.20
2018-07-01T10:44:32.802Z,21.41
2018-07-01T10:45:32.879Z,22.28
2018-07-01T10:46:32.962Z,22.58
2018-07-01T10:47:33.030Z,21.80
2018-07-01T10:48:33.094Z,22.20
2018-07-01T10:49:33.206Z,21.42
2018-07-01T10:50:33.243Z,21.21
2018-07-01T10:51:33.339Z,21.50
2018-07-01T10:52:33.386Z,22.58
2018-07-01T10:53:33.459Z,21.31
2018-07-01T10:54:33.530Z,21.88
2018-07-01T10:55:33.603Z,21.48
2018-07-01T10:56:33.683Z,20.89
2018-07-01T10:57:33.805Z,20.98
2018-07-01T10:58:33.823Z,22.74
2018-07-01T10:59:33.895Z,22.83
2018-07-01T11:00:33.970Z,22.53
2018-07-01T11:01:34.042Z,22.63
2018-07-01T11:02:34.135Z,23.30
2018-07-01T11:03:34.190Z,22.91
2018-07-01T11:04:34.257Z,22.62
2018-07-01T11:05:34.327Z,23.79
2018-07-01T11:06:34.403Z,23.80
2018-07-01T11:07:34.483Z,23.82
2018-07-01T11:08:34.555Z,22.94
2018-07-01T11:09:34.619Z,21.86
2018-07-01T11:10:34.691Z,22.53
2018-07-01T11:11:34.763Z,23.02
2018-07-01T11:12:34.843Z,23.52
2018-07-01T11:13:34.911Z,22.83
2018-07-01T11:14:34.981Z,23.12
2018-07-01T11:15:35.052Z,22.83
2018-07-01T11:16:35.127Z,23.23
2018-07-01T11:17:35.348Z,22.45
2018-07-01T11:18:35.276Z,22.66
2018-07-01T11:19:35.344Z,22.66
2018-07-01T11:20:35.411Z,21.78
2018-07-01T11:21:35.484Z,21.48
2018-07-01T11:22:35.568Z,21.97
2018-07-01T11:23:35.648Z,21.29
2018-07-01T11:24:35.704Z,22.36
2018-07-01T11:25:35.772Z,21.77
2018-07-01T11:26:35.880Z,22.16
2018-07-01T11:27:36.020Z,22.95
2018-07-01T11:28:35.996Z,23.34
2018-07-01T11:29:36.060Z,22.46
2018-07-01T11:30:36.136Z,21.97
2018-07-01T11:31:36.204Z,21.88
2018-07-01T11:32:36.353Z,22.07
2018-07-01T11:33:36.364Z,22.27
2018-07-01T11:34:36.420Z,21.56
2018-07-01T11:35:36.492Z,21.75
2018-07-01T11:36:36.564Z,22.34
2018-07-01T11:37:36.640Z,22.24
2018-07-01T11:38:36.716Z,22.24
2018-07-01T11:39:36.788Z,22.34
2018-07-01T11:40:36.852Z,22.24
2018-07-01T11:41:36.929Z,22.83
2018-07-01T11:42:37.036Z,21.95
2018-07-01T11:43:37.244Z,21.86
2018-07-01T11:44:37.155Z,21.37
2018-07-01T11:45:37.213Z,21.77
2018-07-01T11:46:37.318Z,21.96
2018-07-01T11:47:37.357Z,21.08
2018-07-01T11:48:37.436Z,21.18
2018-07-01T11:49:37.527Z,21.47
2018-07-01T11:50:37.576Z,21.37
2018-07-01T11:51:37.645Z,21.37
2018-07-01T11:52:37.717Z,22.06
2018-07-01T11:53:37.801Z,21.57
2018-07-01T11:54:37.867Z,21.57
2018-07-01T11:55:37.933Z,22.84
2018-07-01T11:56:38.006Z,21.97
2018-07-01T11:57:38.078Z,22.66
2018-07-01T11:58:38.254Z,21.48
2018-07-01T11:59:38.222Z,22.17
2018-07-01T12:00:38.289Z,22.17
2018-07-01T12:01:38.361Z,21.58
2018-07-01T12:02:38.437Z,21.68
2018-07-01T12:03:38.621Z,21.86
2018-07-01T12:04:38.597Z,21.94
2018-07-01T12:05:38.650Z,23.32
2018-07-01T12:06:38.726Z,22.53
2018-07-01T12:07:38.798Z,21.95
2018-07-01T12:08:38.874Z,21.95
2018-07-01T12:09:38.945Z,22.44
2018-07-01T12:10:39.010Z,22.74
2018-07-01T12:11:39.082Z,22.35
2018-07-01T12:12:39.162Z,22.74
2018-07-01T12:13:39.342Z,21.58
2018-07-01T12:14:39.298Z,21.48
2018-07-01T12:15:39.370Z,21.39
2018-07-01T12:16:39.443Z,21.48
2018-07-01T12:17:39.514Z,21.78
2018-07-01T12:18:39.608Z,22.07
2018-07-01T12:19:39.666Z,21.68
2018-07-01T12:20:39.734Z,21.39
2018-07-01T12:21:39.802Z,20.41
2018-07-01T12:22:39.882Z,20.70
2018-07-01T12:23:40.014Z,20.51
2018-07-01T12:24:40.023Z,21.00
2018-07-01T12:25:40.087Z,21.70
2018-07-01T12:26:40.162Z,21.70
2018-07-01T12:27:40.234Z,20.82
2018-07-01T12:28:40.348Z,21.11
2018-07-01T12:29:40.518Z,20.53
2018-07-01T12:30:40.455Z,20.72
2018-07-01T12:31:40.523Z,20.03
2018-07-01T12:32:40.598Z,21.49
2018-07-01T12:33:40.671Z,20.02
2018-07-01T12:34:40.764Z,20.90
2018-07-01T12:35:40.818Z,21.39
2018-07-01T12:36:40.883Z,21.09
2018-07-01T12:37:40.955Z,21.00
2018-07-01T12:38:41.027Z,21.20
2018-07-01T12:39:41.125Z,21.09
2018-07-01T12:40:41.171Z,21.39
2018-07-01T12:41:41.245Z,21.28
2018-07-01T12:42:41.315Z,21.56
2018-07-01T12:43:41.387Z,22.14
2018-07-01T12:44:41.463Z,21.08
2018-07-01T12:45:41.535Z,21.18
2018-07-01T12:46:41.608Z,21.36
2018-07-01T12:47:41.738Z,22.45
2018-07-01T12:48:41.744Z,22.35
2018-07-01T12:49:41.824Z,21.97
2018-07-01T12:50:41.895Z,21.48
2018-07-01T12:51:41.964Z,21.19
2018-07-01T12:52:42.032Z,21.09
2018-07-01T12:53:42.104Z,22.07